createdAt,value
2022-11-23T00:01:38.777Z,0.14809
2022-11-23T00:06:40.525Z,0.71557
2022-11-23T00:11:42.398Z,0.57838
2022-11-23T00:16:44.165Z,0.49359
2022-11-23T00:21:46.039Z,0.75654
2022-11-23T00:26:47.885Z,0.57997
2022-11-23T00:31:49.728Z,0.43135
2022-11-23T00:36:51.720Z,0.79147
2022-11-23T00:41:53.438Z,0.11855
2022-11-23T00:46:55.166Z,0.264
2022-11-23T00:51:57.301Z,0.62157
2022-11-23T00:56:59.123Z,0.49995
2022-11-23T01:02:01.040Z,0.46247
2022-11-23T01:07:02.976Z,0.74574
2022-11-23T01:12:04.665Z,0.80417
2022-11-23T01:17:06.476Z,0.56727
2022-11-23T01:22:08.225Z,0.70573
2022-11-23T01:27:09.925Z,0.01662
2022-11-23T01:32:11.595Z,0.42278
2022-11-23T01:37:13.409Z,0.27638
2022-11-23T01:42:17.727Z,0.48978
2022-11-23T01:47:20.107Z,0.63618
2022-11-23T01:52:21.888Z,0.22208
2022-11-23T01:57:23.550Z,0.58601
2022-11-23T02:02:25.341Z,0.36498
2022-11-23T02:07:27.219Z,-0.36065
2022-11-23T02:12:28.993Z,-0.05388
2022-11-23T02:17:30.743Z,0.23954
2022-11-23T02:22:33.148Z,-1.60834
2022-11-23T02:27:34.908Z,-0.14598
2022-11-23T02:32:36.664Z,0.16841
2022-11-23T02:37:38.532Z,0.17508
2022-11-23T02:42:40.460Z,0.17063
2022-11-23T02:47:42.208Z,0.01534
2022-11-23T02:52:44.327Z,0.1954
2022-11-23T02:57:46.190Z,0.75908
2022-11-23T03:02:47.946Z,0.55488
2022-11-23T03:07:49.805Z,-0.05325
2022-11-23T03:12:51.828Z,0.26558
2022-11-23T03:17:53.611Z,0.36244
2022-11-23T03:22:55.504Z,0.34783
2022-11-23T03:27:57.325Z,-0.14534
2022-11-23T03:32:59.039Z,0.11728
2022-11-23T03:38:00.911Z,0.34243
2022-11-23T03:43:02.701Z,-0.02594
2022-11-23T03:48:04.480Z,-0.04118
2022-11-23T03:53:06.376Z,0.15253
2022-11-23T03:58:08.234Z,-0.04245
2022-11-23T04:03:12.480Z,-0.12025
2022-11-23T04:08:14.460Z,-0.06944
2022-11-23T04:13:16.290Z,0.18302
2022-11-23T04:18:18.299Z,0.09442
2022-11-23T04:23:20.153Z,0.03535
2022-11-23T04:28:22.211Z,0.62348
2022-11-23T04:33:24.136Z,0.4701
2022-11-23T04:38:26.424Z,0.5498
2022-11-23T04:43:28.195Z,0.53805
2022-11-23T04:48:29.937Z,0.42976
2022-11-23T04:53:31.841Z,0.68255
2022-11-23T04:58:34.748Z,0.44247
2022-11-23T05:03:36.601Z,0.71621
2022-11-23T05:08:38.485Z,0.50725
2022-11-23T05:13:40.464Z,0.19413
2022-11-23T05:18:42.135Z,0.28146
2022-11-23T05:23:44.157Z,-0.13391
2022-11-23T05:28:45.895Z,0.19985
2022-11-23T05:33:47.653Z,0.34434
2022-11-23T05:38:49.859Z,0.03821
2022-11-23T05:43:54.464Z,0.48439
2022-11-23T05:48:56.276Z,0.3345
2022-11-23T05:53:58.468Z,-0.20155
2022-11-23T05:59:00.336Z,-0.03801
2022-11-23T06:04:02.331Z,0.37324
2022-11-23T06:09:04.152Z,0.03503
2022-11-23T06:14:08.846Z,0.18207
2022-11-23T06:19:14.764Z,-0.5045
2022-11-23T06:24:17.151Z,-0.46068
2022-11-23T06:29:19.265Z,0.4485
2022-11-23T06:34:20.959Z,0.58918
2022-11-23T06:39:22.996Z,0.36625
2022-11-23T06:44:25.676Z,0.14523
2022-11-23T06:49:27.327Z,0.18778
2022-11-23T06:54:29.055Z,-0.36605
2022-11-23T06:59:31.487Z,-0.35461
2022-11-23T07:04:33.249Z,-0.64391
2022-11-23T07:09:35.231Z,-1.05102
2022-11-23T07:14:37.313Z,-1.42003
2022-11-23T07:19:39.699Z,-1.63374
2022-11-23T07:24:46.410Z,-1.10247
2022-11-23T07:29:48.533Z,-0.86906
2022-11-23T07:34:50.419Z,0.09537
2022-11-23T07:39:57.243Z,-0.29745
2022-11-23T07:44:59.668Z,-0.7595
2022-11-23T07:50:01.368Z,-0.82143
2022-11-23T07:55:03.230Z,0.19572
2022-11-23T08:00:04.866Z,0.22684
2022-11-23T08:05:09.985Z,0.06298
2022-11-23T08:10:15.044Z,-0.30952
2022-11-23T08:15:16.698Z,-0.83508
2022-11-23T08:20:18.384Z,-1.06817
2022-11-23T08:25:20.155Z,-1.65438
2022-11-23T08:30:21.831Z,-1.3327
2022-11-23T08:35:23.552Z,-0.12915
2022-11-23T08:40:25.974Z,0.41992
2022-11-23T08:45:27.840Z,0.32084
2022-11-23T08:50:29.488Z,0.50217
2022-11-23T08:55:31.561Z,-0.24156
2022-11-23T09:00:33.195Z,0.20747
2022-11-23T09:05:34.866Z,0.13634
2022-11-23T09:10:36.569Z,0.28305
2022-11-23T09:15:38.286Z,0.5082
2022-11-23T09:20:40.337Z,0.12046
2022-11-23T09:25:42.185Z,-0.58643
2022-11-23T09:30:44.000Z,-0.65947
2022-11-23T09:35:45.827Z,-0.76522
2022-11-23T09:40:47.852Z,-0.06881
2022-11-23T09:45:49.639Z,-0.13613
2022-11-23T09:50:55.101Z,-0.70266
2022-11-23T09:55:57.090Z,0.06298
2022-11-23T10:00:58.943Z,0.59934
2022-11-23T10:06:00.803Z,0.754
2022-11-23T10:11:02.877Z,0.37006
2022-11-23T10:16:06.097Z,0.02011
2022-11-23T10:21:07.874Z,0.17159
2022-11-23T10:26:09.720Z,-0.06151
2022-11-23T10:31:11.865Z,0.11569
2022-11-23T10:36:13.593Z,-0.22187
2022-11-23T10:41:15.375Z,-0.09167
2022-11-23T10:46:17.118Z,0.34498
2022-11-23T10:51:18.853Z,0.43993
2022-11-23T10:56:20.595Z,0.81529
2022-11-23T11:01:22.372Z,0.55361
2022-11-23T11:06:24.039Z,0.6908
2022-11-23T11:11:25.813Z,0.45866
2022-11-23T11:16:27.579Z,0.65905
2022-11-23T11:21:29.331Z,0.58061
2022-11-23T11:26:31.372Z,-0.18377
2022-11-23T11:31:33.247Z,-0.10533
2022-11-23T11:36:35.020Z,0.24145
2022-11-23T11:41:37.118Z,0.45136
2022-11-23T11:46:38.906Z,0.34656
2022-11-23T11:51:40.627Z,-0.42988
2022-11-23T11:56:42.626Z,-0.32953
2022-11-23T12:01:44.391Z,-0.05261
2022-11-23T12:06:46.066Z,-0.6871
2022-11-23T12:11:48.025Z,0.30941
2022-11-23T12:17:10.243Z,-0.13486
2022-11-23T12:22:26.864Z,-0.42194
2022-11-23T12:27:28.707Z,-0.59342
2022-11-23T12:32:30.461Z,0.38277
2022-11-23T12:37:32.112Z,0.64158
2022-11-23T12:42:34.019Z,0.48534
2022-11-23T12:47:35.729Z,0.40785
2022-11-23T12:52:37.926Z,0.03091
2022-11-23T12:57:39.837Z,0.21192
2022-11-23T13:02:41.736Z,-0.01705
2022-11-23T13:07:47.737Z,-0.52197
2022-11-23T13:12:51.107Z,-0.72997
2022-11-23T13:17:53.185Z,-1.31301
2022-11-23T13:22:54.960Z,-1.56229
2022-11-23T13:27:56.748Z,-1.41431
2022-11-23T13:32:58.403Z,-0.89732
2022-11-23T13:38:00.307Z,-0.62168
2022-11-23T13:43:02.381Z,-1.30158
2022-11-23T13:48:04.122Z,-0.39082
2022-11-23T13:53:05.976Z,-0.89002
2022-11-23T13:58:07.704Z,-0.68488
2022-11-23T14:03:09.363Z,-0.82492
2022-11-23T14:08:11.201Z,-0.24728
2022-11-23T14:13:13.336Z,-0.48894
2022-11-23T14:18:15.110Z,-0.94877
2022-11-23T14:23:16.895Z,-0.17233
2022-11-23T14:28:18.900Z,-0.5045
2022-11-23T14:33:20.551Z,-0.70869
2022-11-23T14:38:22.241Z,-1.05706
2022-11-23T14:43:24.039Z,-1.4648
2022-11-23T14:48:25.736Z,-1.39272
2022-11-23T14:53:27.440Z,-0.81762
2022-11-23T14:58:29.181Z,-1.00434
2022-11-23T15:03:50.803Z,-1.15169
2022-11-23T15:08:52.916Z,-0.49561
2022-11-23T15:13:54.673Z,-0.41908
2022-11-23T15:18:56.353Z,-0.63851
2022-11-23T15:23:58.123Z,-0.62327
2022-11-23T15:28:59.856Z,0.1719
2022-11-23T15:34:01.679Z,-0.54356
2022-11-23T15:39:03.350Z,-1.29205
2022-11-23T15:44:07.488Z,-0.94909
2022-11-23T15:49:09.133Z,-1.07865
2022-11-23T15:54:10.815Z,-0.68424
2022-11-23T15:59:12.706Z,-0.67249
2022-11-23T16:04:14.385Z,-1.1809
2022-11-23T16:09:49.262Z,-0.88113
2022-11-23T16:14:52.843Z,-0.64359
2022-11-23T16:19:54.577Z,-0.35525
2022-11-23T16:24:56.202Z,-0.81
2022-11-23T16:30:02.810Z,-0.1844
2022-11-23T16:35:05.182Z,-1.57595
2022-11-23T16:40:06.832Z,-2.36761
2022-11-23T16:45:08.614Z,-2.26695
2022-11-23T16:50:10.234Z,-1.94939
2022-11-23T16:55:11.828Z,-1.85063
2022-11-23T17:00:13.741Z,-1.76394
2022-11-23T17:05:15.445Z,-1.63057
2022-11-23T17:10:17.202Z,-1.4775
2022-11-23T17:15:20.541Z,-1.30634
2022-11-23T17:20:22.414Z,-1.22314
2022-11-23T17:25:24.117Z,-1.26061
2022-11-23T17:30:25.851Z,-0.49561
2022-11-23T17:35:27.529Z,-1.10977
2022-11-23T17:40:29.422Z,-1.46575
2022-11-23T17:45:31.407Z,-1.78807
2022-11-23T17:50:33.074Z,-1.99385
2022-11-23T17:55:34.721Z,-1.56451
2022-11-23T18:00:36.333Z,-1.22917
2022-11-23T18:05:38.024Z,-0.65947
2022-11-23T18:10:39.865Z,0.15888
2022-11-23T18:15:41.553Z,0.89341
2022-11-23T18:20:43.254Z,-0.20187
2022-11-23T18:25:45.064Z,-0.60199
2022-11-23T18:30:46.865Z,-0.69282
2022-11-23T18:35:48.830Z,0.28019
2022-11-23T18:40:50.614Z,-0.61438
2022-11-23T18:45:52.255Z,-0.29809
2022-11-23T18:50:54.005Z,-0.14026
2022-11-23T18:56:00.299Z,-0.12756
2022-11-23T19:01:03.344Z,0.91405
2022-11-23T19:06:05.136Z,0.92898
2022-11-23T19:11:06.792Z,1.00202
2022-11-23T19:16:08.689Z,0.45295
2022-11-23T19:21:10.440Z,0.65492
2022-11-23T19:26:12.093Z,1.2802
2022-11-23T19:31:13.934Z,2.11922
2022-11-23T19:36:15.859Z,2.26308
2022-11-23T19:41:17.604Z,1.36658
2022-11-23T19:46:19.347Z,2.27007
2022-11-23T19:51:21.017Z,3.22977
2022-11-23T19:56:22.745Z,2.45553
2022-11-23T20:01:24.490Z,3.25899
2022-11-23T20:06:26.274Z,2.26943
2022-11-23T20:11:27.921Z,1.68923
2022-11-23T20:16:29.660Z,1.83436
2022-11-23T20:21:31.496Z,2.80962
2022-11-23T20:26:33.423Z,2.82804
2022-11-23T20:31:35.135Z,3.37681
2022-11-23T20:36:36.807Z,1.8893
2022-11-23T20:41:38.527Z,1.20081
2022-11-23T20:47:02.787Z,0.8299
2022-11-23T20:52:05.107Z,0.70732
2022-11-23T20:57:06.740Z,0.28781
2022-11-23T21:02:08.360Z,-0.05515
2022-11-23T21:07:10.175Z,0.99344
2022-11-23T21:12:11.865Z,0.6149
2022-11-23T21:17:13.563Z,1.37039
2022-11-23T21:22:15.180Z,2.55651
2022-11-23T21:27:16.808Z,2.37613
2022-11-23T21:32:18.501Z,1.33197
2022-11-23T21:37:20.174Z,0.94327
2022-11-23T21:42:21.803Z,1.18176
2022-11-23T21:47:23.478Z,1.29608
2022-11-23T21:52:25.132Z,0.29798
2022-11-23T21:57:26.756Z,0.46851
2022-11-23T22:02:28.545Z,0.67302
2022-11-23T22:07:30.288Z,0.50185
2022-11-23T22:12:31.931Z,0.37133
2022-11-23T22:17:33.582Z,0.5914
2022-11-23T22:22:35.199Z,0.59553
2022-11-23T22:27:36.827Z,1.15223
2022-11-23T22:32:38.450Z,0.4666
2022-11-23T22:37:40.088Z,0.67556
2022-11-23T22:42:41.738Z,0.59236
2022-11-23T22:47:43.392Z,-0.06119
2022-11-23T22:52:44.996Z,0.36752
2022-11-23T22:57:46.628Z,1.06902
2022-11-23T23:02:48.562Z,0.56632
2022-11-23T23:07:50.397Z,0.44596
2022-11-23T23:12:52.212Z,-0.19393
2022-11-23T23:17:53.889Z,0.64793
2022-11-23T23:22:56.197Z,0.25415
2022-11-23T23:27:58.020Z,-0.68043
2022-11-23T23:32:59.845Z,0.03281
2022-11-23T23:38:01.609Z,-0.29777
2022-11-23T23:43:03.305Z,-0.0415
2022-11-23T23:48:04.982Z,0.35387
2022-11-23T23:53:06.669Z,0.54758
2022-11-23T23:58:08.298Z,0.39991
